ワルシャワ の空港の天気 - METARとTAF

ワルシャワ・フレデリック・ショパン空港 ( EPWA / WAW ) - ポーランド ワルシャワ
飛行場実況気象(Metar)
観測時間10/21 18:30 CEST (10/21 16:30 UTC)
風向・風速南東 3m/s
視程10km以上
天気現象
なし
気温10℃
湿度87%
気圧1013hPa
METAREPWA 211630Z 14005KT CAVOK 10/08 Q1013 NOSIG
過去の天気等 Google飛行場航空写真 Wunderground天気予報

過去48時間のMETAR

飛行場予報(TAF)
発表時間: 10/21 16:30 CEST (10/21 14:30 UTC)
予報対象時間: 21日17時 CEST ~ 22日17時 CEST
風向・風速南 4m/s
視程10km以上
なし
22日8時 CEST ~ 22日10時 CEST に徐々に
風向・風速西南西 5m/s
TAF EPWA 211430Z 2115/2215 19008KT CAVOK
BECMG 2206/2208 25010KT